Time;durP1;ratioP1;P1;durP2;ratioP2;P2;SDS_P1;SDS_P2;PMS_P1;PMS_P2;Temp;Humidity;BMP_temperature;BMP_pressure;BME280_temperature;BME280_humidity;BME280_pressure;Samples;Min_cycle;Max_cycle;Signal;HPM_P1;HPM_P2
2023/08/19 00:00:13;;;;;;;17.38;13.70;;;;;;;;;;5127599;27;42154;-64
2023/08/19 00:02:44;;;;;;;16.13;14.32;;;;;;;;;;5121271;27;43088;-63
2023/08/19 00:05:13;;;;;;;18.15;14.75;;;;;;;;;;5106758;27;43350;-64
2023/08/19 00:07:41;;;;;;;14.95;13.57;;;;;;;;;;5120795;27;40906;-63
2023/08/19 00:10:09;;;;;;;15.23;13.73;;;;;;;;;;5107011;27;41555;-64
2023/08/19 00:12:37;;;;;;;14.90;13.50;;;;;;;;;;5106277;27;42074;-64
2023/08/19 00:15:05;;;;;;;15.85;14.32;;;;;;;;;;5114434;27;42552;-64
2023/08/19 00:17:35;;;;;;;15.80;14.30;;;;;;;;;;5106009;28;42604;-64
2023/08/19 00:20:05;;;;;;;14.85;13.45;;;;;;;;;;5106035;27;39876;-64
2023/08/19 00:22:35;;;;;;;15.15;13.60;;;;;;;;;;5106381;27;42684;-63
2023/08/19 00:25:04;;;;;;;15.60;14.20;;;;;;;;;;5107101;27;42192;-64
2023/08/19 00:27:32;;;;;;;13.93;12.48;;;;;;;;;;5108000;27;40388;-64
2023/08/19 00:30:01;;;;;;;15.00;13.38;;;;;;;;;;5109996;27;40406;-64
2023/08/19 00:32:29;;;;;;;15.57;14.07;;;;;;;;;;5110158;27;42226;-63
2023/08/19 00:34:57;;;;;;;15.25;13.65;;;;;;;;;;5110534;28;41078;-64
2023/08/19 00:37:25;;;;;;;16.25;14.55;;;;;;;;;;5108803;28;40569;-63
2023/08/19 00:39:54;;;;;;;15.25;13.65;;;;;;;;;;5110907;28;39865;-64
2023/08/19 00:42:22;;;;;;;15.18;13.68;;;;;;;;;;5109656;28;41355;-64
2023/08/19 00:44:52;;;;;;;15.85;14.15;;;;;;;;;;5109226;28;41662;-63
2023/08/19 00:47:20;;;;;;;16.02;14.52;;;;;;;;;;5109613;28;41205;-63
2023/08/19 00:49:48;;;;;;;16.75;15.23;;;;;;;;;;5108788;28;41615;-64
2023/08/19 00:52:16;;;;;;;15.73;14.13;;;;;;;;;;5109705;28;43199;-64
2023/08/19 00:54:44;;;;;;;16.70;14.98;;;;;;;;;;5109577;28;40304;-64
2023/08/19 00:57:14;;;;;;;18.73;15.32;;;;;;;;;;5109773;27;40928;-64
2023/08/19 00:59:42;;;;;;;16.52;14.93;;;;;;;;;;5109919;27;41044;-63
2023/08/19 01:02:10;;;;;;;15.60;14.00;;;;;;;;;;5109927;28;41788;-63
2023/08/19 01:04:38;;;;;;;16.08;14.48;;;;;;;;;;5097293;28;40553;-64
2023/08/19 01:07:09;;;;;;;16.13;14.52;;;;;;;;;;5110713;28;41439;-63
2023/08/19 01:09:38;;;;;;;16.00;14.40;;;;;;;;;;5107401;28;39971;-64
2023/08/19 01:12:09;;;;;;;15.02;13.55;;;;;;;;;;5108648;27;40845;-64
2023/08/19 01:14:42;;;;;;;17.00;14.60;;;;;;;;;;5108394;27;40196;-63
2023/08/19 01:17:10;;;;;;;16.60;15.00;;;;;;;;;;5109462;28;41748;-64
2023/08/19 01:19:38;;;;;;;16.55;14.95;;;;;;;;;;5109682;28;42050;-64
2023/08/19 01:22:07;;;;;;;16.05;14.45;;;;;;;;;;5108470;28;41520;-64
2023/08/19 01:24:37;;;;;;;16.85;15.25;;;;;;;;;;5108107;28;42761;-63
2023/08/19 01:27:05;;;;;;;15.55;13.93;;;;;;;;;;5110200;28;42433;-64
2023/08/19 01:29:33;;;;;;;16.52;14.90;;;;;;;;;;5108576;28;42548;-64
2023/08/19 01:32:01;;;;;;;16.52;14.93;;;;;;;;;;5109525;28;41453;-64
2023/08/19 01:34:29;;;;;;;16.45;14.65;;;;;;;;;;5107971;28;38890;-64
2023/08/19 01:36:58;;;;;;;15.45;13.95;;;;;;;;;;5107616;27;40078;-63
2023/08/19 01:39:26;;;;;;;15.50;14.10;;;;;;;;;;5109535;27;42629;-64
2023/08/19 01:41:55;;;;;;;15.38;13.98;;;;;;;;;;5110752;27;41357;-64
2023/08/19 01:44:23;;;;;;;15.93;14.23;;;;;;;;;;5118544;27;42561;-64
2023/08/19 01:46:52;;;;;;;16.15;14.65;;;;;;;;;;5112323;27;40153;-63
2023/08/19 01:49:20;;;;;;;16.55;15.05;;;;;;;;;;5117408;27;41575;-64
2023/08/19 01:51:51;;;;;;;16.80;15.20;;;;;;;;;;5108664;27;42167;-64
2023/08/19 01:54:19;;;;;;;16.98;15.27;;;;;;;;;;5107769;28;39129;-64
2023/08/19 01:56:46;;;;;;;15.93;14.23;;;;;;;;;;5108989;28;42355;-64
2023/08/19 01:59:16;;;;;;;15.90;14.27;;;;;;;;;;5108795;27;42707;-64
2023/08/19 02:01:44;;;;;;;17.58;14.27;;;;;;;;;;5126332;27;39043;-64
2023/08/19 02:04:12;;;;;;;16.63;14.85;;;;;;;;;;5122544;27;40672;-64
2023/08/19 02:06:40;;;;;;;15.35;13.85;;;;;;;;;;5106648;28;39768;-64
2023/08/19 02:09:08;;;;;;;16.33;14.63;;;;;;;;;;5107613;28;40434;-64
2023/08/19 02:11:36;;;;;;;15.77;14.18;;;;;;;;;;5106442;28;42033;-63
2023/08/19 02:14:04;;;;;;;15.60;13.95;;;;;;;;;;5107848;28;40091;-64
2023/08/19 02:16:33;;;;;;;16.10;14.57;;;;;;;;;;5107574;28;40563;-64
2023/08/19 02:19:01;;;;;;;15.10;13.60;;;;;;;;;;5107031;27;41040;-63
2023/08/19 02:21:30;;;;;;;15.93;14.32;;;;;;;;;;5086713;28;39054;-64
2023/08/19 02:23:57;;;;;;;17.50;14.48;;;;;;;;;;5089114;28;40617;-64
2023/08/19 02:26:25;;;;;;;15.50;14.00;;;;;;;;;;5106868;27;39720;-64
2023/08/19 02:28:54;;;;;;;15.77;14.13;;;;;;;;;;5107750;27;40304;-64
2023/08/19 02:31:21;;;;;;;18.92;14.75;;;;;;;;;;5106297;28;40837;-64
2023/08/19 02:33:51;;;;;;;16.20;14.50;;;;;;;;;;5106681;28;39069;-64
2023/08/19 02:36:19;;;;;;;15.40;13.80;;;;;;;;;;5106853;28;40390;-64
2023/08/19 02:38:47;;;;;;;15.13;13.60;;;;;;;;;;5108115;28;43162;-64
2023/08/19 02:41:15;;;;;;;15.65;13.57;;;;;;;;;;5108145;27;42007;-64
2023/08/19 02:43:43;;;;;;;15.68;14.10;;;;;;;;;;5108583;28;41772;-64
2023/08/19 02:46:11;;;;;;;14.70;13.20;;;;;;;;;;5111481;27;42469;-64
2023/08/19 02:48:39;;;;;;;15.05;13.38;;;;;;;;;;5107026;27;41504;-64
2023/08/19 02:51:08;;;;;;;14.77;13.23;;;;;;;;;;5107549;28;43191;-63
2023/08/19 02:53:36;;;;;;;15.68;12.82;;;;;;;;;;5106258;28;40641;-64
2023/08/19 02:56:06;;;;;;;15.23;13.68;;;;;;;;;;5106596;28;41308;-64
2023/08/19 02:58:34;;;;;;;15.02;13.43;;;;;;;;;;5106652;28;41640;-64
2023/08/19 03:01:03;;;;;;;13.77;12.52;;;;;;;;;;5107843;28;41980;-63
2023/08/19 03:03:31;;;;;;;15.20;12.70;;;;;;;;;;5103991;28;41132;-64
2023/08/19 03:05:59;;;;;;;14.82;13.32;;;;;;;;;;5106675;28;41819;-64
2023/08/19 03:08:28;;;;;;;14.95;13.43;;;;;;;;;;5105761;28;41127;-64
2023/08/19 03:10:56;;;;;;;16.55;12.32;;;;;;;;;;5106619;28;43325;-64
2023/08/19 03:13:24;;;;;;;15.93;13.45;;;;;;;;;;5105266;27;39948;-64
2023/08/19 03:15:52;;;;;;;13.70;12.30;;;;;;;;;;5104799;27;41914;-63
2023/08/19 03:18:21;;;;;;;14.60;12.85;;;;;;;;;;5106877;27;40886;-64
2023/08/19 03:20:55;;;;;;;13.77;12.35;;;;;;;;;;5100637;28;40516;-63
2023/08/19 03:23:23;;;;;;;14.52;12.52;;;;;;;;;;5107924;27;39895;-63
2023/08/19 03:25:52;;;;;;;12.85;11.55;;;;;;;;;;5120192;27;42756;-64
2023/08/19 03:28:20;;;;;;;12.93;11.60;;;;;;;;;;5106608;27;38993;-63
2023/08/19 03:30:48;;;;;;;14.07;12.68;;;;;;;;;;5114804;27;39944;-63
2023/08/19 03:33:17;;;;;;;13.43;11.98;;;;;;;;;;5120972;27;41301;-64
2023/08/19 03:35:46;;;;;;;14.57;13.00;;;;;;;;;;5118590;27;40015;-64
2023/08/19 03:38:14;;;;;;;16.42;13.35;;;;;;;;;;5105989;28;41102;-64
2023/08/19 03:40:42;;;;;;;15.00;12.20;;;;;;;;;;5107590;28;40506;-64
2023/08/19 03:43:12;;;;;;;16.80;13.73;;;;;;;;;;5105394;28;40218;-64
2023/08/19 03:45:40;;;;;;;14.48;12.27;;;;;;;;;;5111777;27;41952;-64
2023/08/19 03:48:09;;;;;;;14.20;12.43;;;;;;;;;;5123406;27;40071;-63
2023/08/19 03:50:37;;;;;;;14.25;12.75;;;;;;;;;;5114281;27;42637;-64
2023/08/19 03:53:05;;;;;;;13.65;12.25;;;;;;;;;;5128131;27;40557;-64
2023/08/19 03:55:33;;;;;;;15.23;11.90;;;;;;;;;;5127601;27;41674;-63
2023/08/19 03:58:01;;;;;;;14.13;12.65;;;;;;;;;;5126413;27;41654;-64
2023/08/19 04:00:30;;;;;;;14.85;12.13;;;;;;;;;;5127079;27;38975;-63
2023/08/19 04:02:58;;;;;;;17.20;11.75;;;;;;;;;;5130142;27;41673;-64
2023/08/19 04:05:26;;;;;;;12.27;10.95;;;;;;;;;;5117333;27;40831;-64
2023/08/19 04:07:54;;;;;;;14.38;11.20;;;;;;;;;;5109806;28;41357;-64
2023/08/19 04:10:22;;;;;;;12.43;10.52;;;;;;;;;;5108834;28;41344;-64
2023/08/19 04:12:51;;;;;;;11.88;10.32;;;;;;;;;;5107474;27;40619;-64
2023/08/19 04:15:19;;;;;;;15.25;11.68;;;;;;;;;;5107353;28;41965;-64
2023/08/19 04:17:49;;;;;;;12.60;11.27;;;;;;;;;;5107306;28;41541;-64
2023/08/19 04:20:17;;;;;;;11.95;10.07;;;;;;;;;;5108562;27;40187;-64
2023/08/19 04:22:46;;;;;;;12.20;10.98;;;;;;;;;;5110782;28;41230;-64
2023/08/19 04:25:14;;;;;;;12.02;10.75;;;;;;;;;;5112738;27;40830;-64
2023/08/19 04:27:43;;;;;;;16.00;11.48;;;;;;;;;;5108429;28;38845;-64
2023/08/19 04:30:12;;;;;;;13.48;11.80;;;;;;;;;;5109400;27;40234;-64
2023/08/19 04:32:40;;;;;;;13.35;10.68;;;;;;;;;;5107970;28;40087;-64
2023/08/19 04:35:10;;;;;;;12.35;11.05;;;;;;;;;;5108688;28;40338;-64
2023/08/19 04:37:40;;;;;;;13.05;10.43;;;;;;;;;;5110140;27;42906;-64
2023/08/19 04:40:09;;;;;;;12.23;10.38;;;;;;;;;;5108634;28;39128;-63
2023/08/19 04:42:40;;;;;;;11.10;10.00;;;;;;;;;;5108601;27;42271;-64
2023/08/19 04:45:10;;;;;;;13.18;10.90;;;;;;;;;;5109885;27;41957;-63
2023/08/19 04:47:42;;;;;;;13.70;10.73;;;;;;;;;;5111140;27;40772;-64
2023/08/19 04:50:12;;;;;;;13.68;10.35;;;;;;;;;;5113050;27;40127;-63
2023/08/19 04:52:40;;;;;;;16.35;10.52;;;;;;;;;;5103010;27;41496;-64
2023/08/19 04:55:09;;;;;;;11.85;10.07;;;;;;;;;;5122100;27;38988;-64
2023/08/19 04:57:37;;;;;;;13.05;9.55;;;;;;;;;;5113778;27;40468;-63
2023/08/19 05:00:08;;;;;;;11.75;10.13;;;;;;;;;;5112204;27;39047;-64
2023/08/19 05:02:36;;;;;;;12.15;9.80;;;;;;;;;;5116675;27;40609;-64
2023/08/19 05:05:05;;;;;;;14.23;10.55;;;;;;;;;;5114885;27;40590;-64
2023/08/19 05:07:34;;;;;;;12.38;9.52;;;;;;;;;;5115434;27;39201;-64
2023/08/19 05:10:03;;;;;;;14.13;9.43;;;;;;;;;;5117783;27;41799;-63
2023/08/19 05:12:31;;;;;;;12.52;9.93;;;;;;;;;;5120404;27;40921;-64
2023/08/19 05:15:00;;;;;;;11.85;9.52;;;;;;;;;;5108022;27;40400;-64
2023/08/19 05:17:28;;;;;;;10.07;8.63;;;;;;;;;;5108394;28;40312;-63
2023/08/19 05:19:56;;;;;;;10.65;9.15;;;;;;;;;;5105980;27;42987;-63
2023/08/19 05:22:24;;;;;;;10.75;8.57;;;;;;;;;;5128129;27;41385;-63
2023/08/19 05:24:53;;;;;;;11.63;9.38;;;;;;;;;;5123105;27;43326;-64
2023/08/19 05:27:21;;;;;;;16.45;9.65;;;;;;;;;;5130546;27;40056;-64
2023/08/19 05:29:50;;;;;;;10.52;8.95;;;;;;;;;;5109022;27;41586;-64
2023/08/19 05:32:18;;;;;;;9.95;8.95;;;;;;;;;;5109127;27;42563;-64
2023/08/19 05:34:46;;;;;;;12.52;9.50;;;;;;;;;;5109347;27;41422;-64
2023/08/19 05:37:14;;;;;;;11.88;9.00;;;;;;;;;;5088748;28;41756;-64
2023/08/19 05:39:42;;;;;;;14.80;9.32;;;;;;;;;;5088776;28;42877;-64
2023/08/19 05:42:11;;;;;;;9.93;8.90;;;;;;;;;;5108199;27;40858;-64
2023/08/19 05:44:40;;;;;;;10.55;8.52;;;;;;;;;;5129076;27;42040;-64
2023/08/19 05:47:09;;;;;;;13.15;9.27;;;;;;;;;;5126235;27;40250;-64
2023/08/19 05:49:37;;;;;;;10.80;8.73;;;;;;;;;;5108361;27;41814;-64
2023/08/19 05:52:05;;;;;;;11.88;9.30;;;;;;;;;;5109636;27;41623;-64
2023/08/19 05:54:33;;;;;;;11.07;8.73;;;;;;;;;;5108979;27;41084;-64
2023/08/19 05:57:01;;;;;;;13.52;9.15;;;;;;;;;;5108854;27;42162;-64
2023/08/19 05:59:31;;;;;;;11.38;9.18;;;;;;;;;;5109107;27;41674;-63
2023/08/19 06:01:58;;;;;;;10.60;7.95;;;;;;;;;;5109381;27;41564;-64
2023/08/19 06:04:26;;;;;;;10.35;8.52;;;;;;;;;;5108150;27;41671;-64
2023/08/19 06:06:54;;;;;;;10.50;7.90;;;;;;;;;;5109782;27;41418;-64
2023/08/19 06:09:22;;;;;;;9.70;7.88;;;;;;;;;;5108995;27;42629;-64
2023/08/19 06:11:51;;;;;;;9.80;7.60;;;;;;;;;;5108297;27;41859;-64
2023/08/19 06:14:19;;;;;;;11.20;8.23;;;;;;;;;;5109335;27;40360;-64
2023/08/19 06:16:48;;;;;;;9.30;8.13;;;;;;;;;;5124181;27;41229;-64
2023/08/19 06:19:16;;;;;;;11.25;8.82;;;;;;;;;;5114015;27;42324;-64
2023/08/19 06:21:44;;;;;;;8.73;7.82;;;;;;;;;;5108181;27;40203;-64
2023/08/19 06:24:12;;;;;;;12.82;8.48;;;;;;;;;;5108547;27;41883;-64
2023/08/19 06:26:40;;;;;;;10.80;8.32;;;;;;;;;;5114420;27;40447;-64
2023/08/19 06:29:08;;;;;;;10.07;8.77;;;;;;;;;;5126194;27;42165;-64
2023/08/19 06:31:36;;;;;;;13.77;8.85;;;;;;;;;;5107815;27;41702;-64
2023/08/19 06:34:06;;;;;;;10.75;8.82;;;;;;;;;;5108724;27;41499;-64
2023/08/19 06:36:34;;;;;;;11.07;8.25;;;;;;;;;;5108888;27;42256;-64
2023/08/19 06:39:04;;;;;;;8.68;7.88;;;;;;;;;;5108378;27;41683;-63
2023/08/19 06:41:33;;;;;;;9.25;8.25;;;;;;;;;;5108479;27;40546;-64
2023/08/19 06:44:03;;;;;;;12.27;8.65;;;;;;;;;;5088859;27;42908;-64
2023/08/19 06:46:31;;;;;;;10.63;8.35;;;;;;;;;;5086973;28;43000;-64
2023/08/19 06:49:00;;;;;;;14.48;8.77;;;;;;;;;;5088536;28;42169;-64
2023/08/19 06:51:29;;;;;;;10.35;7.85;;;;;;;;;;5111481;27;42873;-64
2023/08/19 06:53:58;;;;;;;10.35;8.52;;;;;;;;;;5128770;27;40384;-64
2023/08/19 06:56:31;;;;;;;12.98;8.32;;;;;;;;;;5128695;27;42904;-63
2023/08/19 06:59:00;;;;;;;10.18;7.47;;;;;;;;;;5127800;27;42524;-64
2023/08/19 07:01:30;;;;;;;9.38;8.30;;;;;;;;;;5110211;27;40282;-64
2023/08/19 07:03:58;;;;;;;10.07;7.35;;;;;;;;;;5112034;27;41199;-64
2023/08/19 07:06:26;;;;;;;8.90;7.10;;;;;;;;;;5112172;27;43102;-64
2023/08/19 07:08:55;;;;;;;8.70;7.80;;;;;;;;;;5107663;27;40440;-64
2023/08/19 07:11:23;;;;;;;7.60;6.78;;;;;;;;;;5107554;27;43104;-64
2023/08/19 07:13:52;;;;;;;9.43;7.50;;;;;;;;;;5107455;27;41404;-64
2023/08/19 07:16:21;;;;;;;8.45;7.15;;;;;;;;;;5108539;27;41336;-64
2023/08/19 07:18:49;;;;;;;9.48;7.38;;;;;;;;;;5113750;27;43007;-64
2023/08/19 07:21:17;;;;;;;13.40;8.25;;;;;;;;;;5109507;27;41347;-64
2023/08/19 07:23:45;;;;;;;14.02;8.32;;;;;;;;;;5107201;27;42290;-64
2023/08/19 07:26:14;;;;;;;11.57;8.10;;;;;;;;;;5107916;27;42955;-64
2023/08/19 07:28:42;;;;;;;10.68;7.45;;;;;;;;;;5107708;27;40995;-64
2023/08/19 07:31:10;;;;;;;12.27;8.02;;;;;;;;;;5107929;27;42378;-64
2023/08/19 07:33:38;;;;;;;9.35;7.47;;;;;;;;;;5108873;27;41427;-68
2023/08/19 07:36:06;;;;;;;9.48;7.93;;;;;;;;;;5121000;27;41138;-68
2023/08/19 07:38:34;;;;;;;17.40;8.52;;;;;;;;;;5112157;27;42157;-69
2023/08/19 07:41:02;;;;;;;18.33;8.80;;;;;;;;;;5113473;27;40485;-67
2023/08/19 07:43:32;;;;;;;15.48;7.43;;;;;;;;;;5112207;27;42227;-67
2023/08/19 07:46:00;;;;;;;19.83;7.50;;;;;;;;;;5112622;28;41528;-69
2023/08/19 07:48:28;;;;;;;18.65;7.90;;;;;;;;;;5113703;27;40337;-69
2023/08/19 07:50:56;;;;;;;12.52;7.80;;;;;;;;;;5111113;28;41072;-69
2023/08/19 07:53:24;;;;;;;25.50;8.35;;;;;;;;;;5114269;27;33771;-66
2023/08/19 07:55:52;;;;;;;14.68;8.15;;;;;;;;;;5114849;27;42290;-65
2023/08/19 07:58:20;;;;;;;11.40;7.65;;;;;;;;;;5112229;27;41893;-65
2023/08/19 08:00:49;;;;;;;15.63;8.35;;;;;;;;;;5113884;27;40834;-65
2023/08/19 08:03:17;;;;;;;11.32;8.10;;;;;;;;;;5112780;27;42302;-64
2023/08/19 08:05:45;;;;;;;15.48;8.98;;;;;;;;;;5114012;27;42107;-67
2023/08/19 08:08:13;;;;;;;14.45;8.13;;;;;;;;;;5114778;27;40436;-66
2023/08/19 08:10:41;;;;;;;13.35;7.53;;;;;;;;;;5113332;27;41594;-66
2023/08/19 08:13:09;;;;;;;14.18;7.68;;;;;;;;;;5114411;27;41680;-66
2023/08/19 08:15:37;;;;;;;10.77;7.25;;;;;;;;;;5113798;27;42623;-67
2023/08/19 08:18:07;;;;;;;10.70;7.75;;;;;;;;;;5113385;27;42564;-67
2023/08/19 08:20:35;;;;;;;9.30;7.20;;;;;;;;;;5117579;27;41417;-66
2023/08/19 08:23:03;;;;;;;11.93;7.82;;;;;;;;;;5114452;27;42303;-66
2023/08/19 08:25:31;;;;;;;12.52;7.85;;;;;;;;;;5112495;27;42251;-66
2023/08/19 08:27:59;;;;;;;9.75;6.88;;;;;;;;;;5116924;27;41329;-67
2023/08/19 08:30:27;;;;;;;14.13;7.63;;;;;;;;;;5113431;27;41519;-67
2023/08/19 08:32:55;;;;;;;11.57;7.68;;;;;;;;;;5129010;27;43191;-67
2023/08/19 08:35:24;;;;;;;11.15;7.30;;;;;;;;;;5135134;27;40525;-67
2023/08/19 08:37:52;;;;;;;10.30;7.57;;;;;;;;;;5120209;27;41602;-67
2023/08/19 08:40:20;;;;;;;11.68;7.32;;;;;;;;;;5113130;27;40457;-69
2023/08/19 08:42:48;;;;;;;12.40;7.78;;;;;;;;;;5113658;27;41001;-67
2023/08/19 08:45:16;;;;;;;10.20;7.43;;;;;;;;;;5114245;27;42726;-70
2023/08/19 08:47:44;;;;;;;13.85;7.68;;;;;;;;;;5110063;27;40092;-69
2023/08/19 08:50:12;;;;;;;12.32;8.10;;;;;;;;;;5110433;27;41384;-67
2023/08/19 08:52:42;;;;;;;11.55;7.50;;;;;;;;;;5109360;27;41520;-67
2023/08/19 08:55:10;;;;;;;7.68;6.75;;;;;;;;;;5110341;27;40453;-66
2023/08/19 08:57:38;;;;;;;10.65;7.35;;;;;;;;;;5121520;27;43310;-66
2023/08/19 09:00:07;;;;;;;11.55;7.35;;;;;;;;;;5103526;27;41046;-66
2023/08/19 09:02:35;;;;;;;12.13;7.03;;;;;;;;;;5089046;28;42590;-66
2023/08/19 09:05:04;;;;;;;12.32;6.68;;;;;;;;;;5089108;28;43394;-66
2023/08/19 09:07:34;;;;;;;8.10;6.68;;;;;;;;;;5088337;28;39935;-66
2023/08/19 09:10:03;;;;;;;10.02;7.72;;;;;;;;;;5103334;28;42475;-66
2023/08/19 09:12:31;;;;;;;11.55;7.28;;;;;;;;;;5108979;27;42685;-66
2023/08/19 09:15:02;;;;;;;8.30;6.60;;;;;;;;;;5109007;27;40739;-66
2023/08/19 09:17:30;;;;;;;9.70;7.20;;;;;;;;;;5109781;27;41317;-66
2023/08/19 09:19:58;;;;;;;7.80;6.88;;;;;;;;;;5110521;27;43311;-66
2023/08/19 09:22:26;;;;;;;10.05;7.13;;;;;;;;;;5108942;27;41558;-66
2023/08/19 09:24:54;;;;;;;9.25;7.22;;;;;;;;;;5110358;27;41932;-66
2023/08/19 09:27:27;;;;;;;9.32;7.55;;;;;;;;;;5110072;27;41003;-66
2023/08/19 09:29:55;;;;;;;8.52;7.65;;;;;;;;;;5109497;27;41581;-66
2023/08/19 09:32:29;;;;;;;10.63;7.82;;;;;;;;;;5109518;27;41944;-65
2023/08/19 09:35:02;;;;;;;12.75;7.68;;;;;;;;;;5090546;27;41341;-64
2023/08/19 09:37:30;;;;;;;8.60;7.53;;;;;;;;;;5091947;28;41747;-70
2023/08/19 09:39:58;;;;;;;8.85;7.30;;;;;;;;;;5109107;27;43208;-70
2023/08/19 09:42:28;;;;;;;15.13;7.43;;;;;;;;;;5108857;27;41305;-70
2023/08/19 09:44:56;;;;;;;7.50;6.80;;;;;;;;;;5110130;27;41587;-65
2023/08/19 09:47:24;;;;;;;14.88;7.63;;;;;;;;;;5109801;27;40528;-65
2023/08/19 09:49:52;;;;;;;10.80;6.57;;;;;;;;;;5108658;27;41261;-65
2023/08/19 09:52:20;;;;;;;11.77;6.95;;;;;;;;;;5108836;27;42167;-63
2023/08/19 09:54:52;;;;;;;8.90;6.88;;;;;;;;;;5109229;27;39914;-66
2023/08/19 09:57:25;;;;;;;9.77;7.53;;;;;;;;;;5107781;27;41265;-66
2023/08/19 09:59:54;;;;;;;8.98;7.20;;;;;;;;;;5108572;27;42170;-66
2023/08/19 10:02:22;;;;;;;9.98;7.57;;;;;;;;;;5108785;27;40256;-66
2023/08/19 10:04:50;;;;;;;8.50;7.40;;;;;;;;;;5111578;27;43371;-68
2023/08/19 10:07:18;;;;;;;13.93;7.00;;;;;;;;;;5118268;27;40888;-70
2023/08/19 10:09:46;;;;;;;10.70;7.55;;;;;;;;;;5110272;27;41405;-68
2023/08/19 10:12:15;;;;;;;15.98;7.60;;;;;;;;;;5119664;27;43176;-71
2023/08/19 10:14:45;;;;;;;12.55;7.95;;;;;;;;;;5129627;27;41383;-69
2023/08/19 10:17:14;;;;;;;12.45;7.53;;;;;;;;;;5129247;27;42618;-69
2023/08/19 10:19:44;;;;;;;12.55;7.88;;;;;;;;;;5129217;27;41873;-68
2023/08/19 10:22:13;;;;;;;13.13;8.10;;;;;;;;;;5129026;27;40049;-70
2023/08/19 10:24:41;;;;;;;12.13;7.78;;;;;;;;;;5100905;27;42764;-66
2023/08/19 10:27:15;;;;;;;12.45;8.38;;;;;;;;;;5091520;28;40383;-66
2023/08/19 10:29:43;;;;;;;12.65;8.05;;;;;;;;;;5087517;28;41510;-66
2023/08/19 10:32:27;;;;;;;11.50;8.57;;;;;;;;;;5087671;28;43170;-66
2023/08/19 10:35:04;;;;;;;12.60;9.48;;;;;;;;;;5086954;28;41220;-66
2023/08/19 10:37:32;;;;;;;12.75;8.95;;;;;;;;;;5087572;28;41593;-66
2023/08/19 10:40:10;;;;;;;14.85;8.73;;;;;;;;;;5087531;28;42075;-66
2023/08/19 10:42:38;;;;;;;14.02;10.60;;;;;;;;;;5087963;28;40937;-67
2023/08/19 10:45:13;;;;;;;13.65;11.65;;;;;;;;;;5087738;28;42648;-66
2023/08/19 10:47:41;;;;;;;11.55;9.30;;;;;;;;;;5088438;28;41888;-68
2023/08/19 10:50:11;;;;;;;14.93;10.20;;;;;;;;;;5088468;28;42772;-70
2023/08/19 10:52:57;;;;;;;18.08;10.43;;;;;;;;;;5088259;28;41730;-69
2023/08/19 10:55:25;;;;;;;17.20;10.60;;;;;;;;;;5107636;27;41347;-69
2023/08/19 10:57:53;;;;;;;17.08;11.38;;;;;;;;;;5108242;27;42639;-70
2023/08/19 11:00:22;;;;;;;17.60;11.93;;;;;;;;;;5107343;27;42968;-73
2023/08/19 11:02:50;;;;;;;16.02;12.15;;;;;;;;;;5108556;27;40803;-71
2023/08/19 11:05:26;;;;;;;14.02;12.30;;;;;;;;;;5108461;27;42345;-69
2023/08/19 11:07:54;;;;;;;17.33;12.27;;;;;;;;;;5103413;28;42202;-68
2023/08/19 11:10:24;;;;;;;18.33;13.48;;;;;;;;;;5107474;27;40792;-66
2023/08/19 11:12:51;;;;;;;14.90;13.27;;;;;;;;;;5099379;27;42642;-65
2023/08/19 11:15:25;;;;;;;18.40;12.93;;;;;;;;;;5106665;27;40819;-64
2023/08/19 11:17:53;;;;;;;18.85;12.70;;;;;;;;;;5111441;27;42266;-67
2023/08/19 11:20:27;;;;;;;19.42;13.25;;;;;;;;;;5112040;27;42803;-67
2023/08/19 11:22:57;;;;;;;17.58;14.23;;;;;;;;;;5101464;27;41182;-66
2023/08/19 11:25:33;;;;;;;23.55;13.98;;;;;;;;;;5107639;27;42498;-67
2023/08/19 11:28:02;;;;;;;23.50;15.65;;;;;;;;;;5103085;27;42256;-66
2023/08/19 11:30:30;;;;;;;18.60;15.10;;;;;;;;;;5107316;27;41034;-67
2023/08/19 11:32:58;;;;;;;17.58;15.57;;;;;;;;;;5100394;28;41309;-67
2023/08/19 11:35:28;;;;;;;21.33;15.02;;;;;;;;;;5103661;27;39908;-70
2023/08/19 11:37:57;;;;;;;16.50;14.85;;;;;;;;;;5106503;27;42085;-68
2023/08/19 11:40:32;;;;;;;17.38;15.68;;;;;;;;;;5099289;28;42122;-70
2023/08/19 11:43:07;;;;;;;21.70;16.40;;;;;;;;;;5104370;27;40616;-69
2023/08/19 11:45:36;;;;;;;19.33;17.33;;;;;;;;;;5100607;27;42682;-70
2023/08/19 11:48:04;;;;;;;21.90;19.05;;;;;;;;;;5103713;28;42064;-71
2023/08/19 11:50:34;;;;;;;25.88;18.70;;;;;;;;;;5088883;28;39077;-67
2023/08/19 11:53:04;;;;;;;23.70;19.35;;;;;;;;;;5105309;27;42561;-66
2023/08/19 11:55:32;;;;;;;23.77;18.95;;;;;;;;;;5105856;27;41988;-66
2023/08/19 11:58:03;;;;;;;20.80;18.67;;;;;;;;;;5108656;27;42182;-67
2023/08/19 12:00:31;;;;;;;21.88;18.58;;;;;;;;;;5106891;27;41988;-67
2023/08/19 12:02:59;;;;;;;21.13;18.90;;;;;;;;;;5104855;27;39980;-67
2023/08/19 12:05:27;;;;;;;21.42;18.38;;;;;;;;;;5105782;27;41667;-68
2023/08/19 12:07:55;;;;;;;24.33;19.40;;;;;;;;;;5105288;27;43034;-67
2023/08/19 12:10:24;;;;;;;24.95;19.63;;;;;;;;;;5108844;27;40763;-67
2023/08/19 12:12:59;;;;;;;22.77;19.77;;;;;;;;;;5106510;27;42357;-67
2023/08/19 12:15:27;;;;;;;25.02;20.10;;;;;;;;;;5105201;27;42175;-67
2023/08/19 12:17:56;;;;;;;23.90;17.85;;;;;;;;;;5103422;27;42055;-67
2023/08/19 12:20:24;;;;;;;22.48;20.15;;;;;;;;;;5105279;27;41799;-67
2023/08/19 12:22:52;;;;;;;22.27;18.83;;;;;;;;;;5105977;27;41099;-67
2023/08/19 12:25:20;;;;;;;18.48;16.65;;;;;;;;;;5107575;27;41721;-67
2023/08/19 12:27:51;;;;;;;22.23;17.25;;;;;;;;;;5108481;27;42161;-67
2023/08/19 12:30:19;;;;;;;19.85;17.95;;;;;;;;;;5108989;27;40156;-67
2023/08/19 12:32:47;;;;;;;20.90;16.95;;;;;;;;;;5109112;28;42547;-67
2023/08/19 12:35:15;;;;;;;17.55;15.95;;;;;;;;;;5110445;27;42746;-67
2023/08/19 12:37:43;;;;;;;24.98;16.65;;;;;;;;;;5109860;27;41412;-67
2023/08/19 12:40:11;;;;;;;17.00;15.30;;;;;;;;;;5110412;27;42072;-67
2023/08/19 12:42:39;;;;;;;17.42;15.18;;;;;;;;;;5109500;28;41034;-67
2023/08/19 12:45:17;;;;;;;18.65;16.77;;;;;;;;;;5109646;28;41564;-67
2023/08/19 12:47:46;;;;;;;21.35;19.20;;;;;;;;;;5109731;27;42061;-67
2023/08/19 12:50:15;;;;;;;17.67;15.93;;;;;;;;;;5094491;28;40544;-67
2023/08/19 12:52:44;;;;;;;17.23;15.52;;;;;;;;;;5096636;28;41706;-67
2023/08/19 12:55:12;;;;;;;16.92;15.23;;;;;;;;;;5109806;27;42007;-67
2023/08/19 12:57:42;;;;;;;18.65;16.67;;;;;;;;;;5110040;27;40338;-67
2023/08/19 13:00:12;;;;;;;16.05;14.35;;;;;;;;;;5109968;27;42287;-67
2023/08/19 13:02:41;;;;;;;16.30;14.60;;;;;;;;;;5109576;27;41780;-67
2023/08/19 13:05:10;;;;;;;18.30;16.50;;;;;;;;;;5110737;27;42690;-67
2023/08/19 13:07:38;;;;;;;17.65;15.75;;;;;;;;;;5109112;27;42687;-67
2023/08/19 13:10:06;;;;;;;18.52;16.73;;;;;;;;;;5110375;27;40401;-67
2023/08/19 13:12:34;;;;;;;15.93;14.43;;;;;;;;;;5109440;27;41823;-67
2023/08/19 13:15:03;;;;;;;16.48;14.80;;;;;;;;;;5109509;27;42682;-67
2023/08/19 13:17:31;;;;;;;14.95;13.45;;;;;;;;;;5110049;27;40751;-67
2023/08/19 13:20:00;;;;;;;18.40;15.23;;;;;;;;;;5109184;27;41239;-67
2023/08/19 13:22:28;;;;;;;14.50;13.25;;;;;;;;;;5109086;27;42727;-67
2023/08/19 13:24:57;;;;;;;16.30;14.20;;;;;;;;;;5110354;27;20259;-67
2023/08/19 13:27:25;;;;;;;15.68;14.18;;;;;;;;;;5108827;27;42370;-67
2023/08/19 13:29:53;;;;;;;15.40;13.90;;;;;;;;;;5109542;27;40589;-67
2023/08/19 13:32:23;;;;;;;14.80;13.30;;;;;;;;;;5109390;28;41786;-67
2023/08/19 13:34:51;;;;;;;14.98;13.48;;;;;;;;;;5108340;27;42061;-67
2023/08/19 13:37:20;;;;;;;14.20;12.88;;;;;;;;;;5109332;27;41284;-67
2023/08/19 13:39:48;;;;;;;14.30;12.80;;;;;;;;;;5109124;27;42632;-67
2023/08/19 13:42:16;;;;;;;12.90;11.70;;;;;;;;;;5108596;27;42224;-67
2023/08/19 13:44:46;;;;;;;13.82;12.43;;;;;;;;;;5108195;28;40150;-67
2023/08/19 13:47:14;;;;;;;14.80;13.20;;;;;;;;;;5109679;28;42069;-67
2023/08/19 13:49:42;;;;;;;14.68;12.88;;;;;;;;;;5108343;28;40066;-67
2023/08/19 13:52:15;;;;;;;12.98;11.60;;;;;;;;;;5109172;28;41190;-67
2023/08/19 13:54:44;;;;;;;13.23;11.93;;;;;;;;;;5107748;28;41921;-67
2023/08/19 13:57:12;;;;;;;12.68;11.43;;;;;;;;;;5109032;27;40447;-67
2023/08/19 13:59:40;;;;;;;12.52;11.43;;;;;;;;;;5108266;27;42540;-67
2023/08/19 14:02:08;;;;;;;12.98;11.52;;;;;;;;;;5108313;27;42090;-67
2023/08/19 14:04:36;;;;;;;14.18;11.27;;;;;;;;;;5108760;27;40392;-68
2023/08/19 14:07:04;;;;;;;11.98;10.88;;;;;;;;;;5110051;27;41717;-67
2023/08/19 14:09:32;;;;;;;12.25;10.88;;;;;;;;;;5108167;27;40644;-68
2023/08/19 14:12:01;;;;;;;12.25;11.00;;;;;;;;;;5109370;27;42157;-67
2023/08/19 14:14:30;;;;;;;12.35;11.15;;;;;;;;;;5107802;27;43102;-67
2023/08/19 14:16:58;;;;;;;11.77;10.68;;;;;;;;;;5108622;27;41977;-67
2023/08/19 14:19:26;;;;;;;11.70;10.50;;;;;;;;;;5108349;27;41686;-67
2023/08/19 14:21:54;;;;;;;11.82;10.00;;;;;;;;;;5108979;27;43112;-67
2023/08/19 14:24:22;;;;;;;10.93;9.90;;;;;;;;;;5107833;27;41038;-67
2023/08/19 14:26:51;;;;;;;11.00;10.00;;;;;;;;;;5109041;27;40937;-67
2023/08/19 14:29:20;;;;;;;11.30;10.20;;;;;;;;;;5108905;27;40112;-67
2023/08/19 14:31:48;;;;;;;10.50;9.50;;;;;;;;;;5108238;27;42224;-67